• Join FlightAware (Why Join?)
  • Login
  • US Flag 
08:49AM EDT


 

Airport Tracker/Info


-or-


 

Live Flight TrackerFlight Track Log ✈ ASQ6115 ✈ 16-Jun-2013 ✈ KIAH - KMFE

Flight Track Log - Related Links

Times and Time Zones

All times are in EDT time to prevent confusion due to time zone crossing. See the ASQ6115 flight status page for this flight to view local times or setup timezone preferences in your user account.

Time Position Orientation Groundspeed Altitude Reporting Facility
EDT Latitude Longitude Course Direction KTS MPH feet Rate Location/Type
08:19AM 29.9683 -95.3475 190° South 203 234 600  Level Houston Center
08:19AM 29.9475 -95.3261 138° Southeast 186 214 2,000 2,940 Climbing Houston Center
08:21AM 29.8953 -95.2600 132° Southeast 256 295 5,400 2,880 Climbing Houston Center
08:22AM 29.8456 -95.1986 133° Southeast 268 308 8,200 2,400 Climbing Houston Center
08:23AM 29.7856 -95.1342 137° Southeast 280 322 10,800 1,500 Climbing Houston Center
08:24AM 29.4878 -95.4324 190° South  Level FlightAware Approximate
08:24AM 29.7006 -95.1558 192° South 316 364 11,600  Level Houston Center
08:25AM 29.6114 -95.1989 203° Southwest 339 390 13,300 1,680 Climbing Houston Center
08:26AM 29.5072 -95.2525 204° Southwest 364 419 15,100 1,620 Climbing Houston Center
08:27AM 29.4283 -95.3250 219° Southwest 366 421 16,600 1,500 Climbing Houston Center
08:28AM 29.3489 -95.3992 219° Southwest 366 421 18,200 1,680 Climbing Houston Center
08:29AM 29.2694 -95.4728 219° Southwest 366 421 20,100 1,680 Climbing Houston Center
08:30AM 29.1900 -95.5461 219° Southwest 367 422 21,700 1,560 Climbing Houston Center
08:31AM 29.1086 -95.6217 219° Southwest 375 432 23,300 1,680 Climbing Houston Center
08:32AM 29.0111 -95.7117 219° Southwest 376 433 25,200 1,680 Climbing Houston Center
08:33AM 28.9286 -95.7875 219° Southwest 380 437 26,800 1,560 Climbing Houston Center
08:34AM 28.8458 -95.8647 219° Southwest 384 442 28,400 1,380 Climbing Houston Center
08:35AM 28.7619 -95.9408 219° Southwest 384 442 29,700 780 Climbing Houston Center
08:36AM 28.6819 -96.0144 219° Southwest 400 460 30,000 120 Climbing Houston Center
08:37AM 28.5867 -96.1000 218° Southwest 428 493 30,000  Level Houston Center
08:38AM 28.4878 -96.1914 219° Southwest 449 517 30,000  Level Houston Center
08:39AM 28.3664 -96.3014 219° Southwest 460 529 30,000  Level Houston Center
08:40AM 28.2658 -96.3931 219° Southwest 463 533 30,000  Level Houston Center
08:41AM 28.1656 -96.4814 218° Southwest 458 527 30,000  Level Houston Center
08:42AM 28.0661 -96.5728 219° Southwest 458 527 30,000  Level Houston Center
08:43AM 27.9661 -96.6628 218° Southwest 457 526 30,000  Level Houston Center
08:44AM 27.8653 -96.7531 218° Southwest 459 528 30,000  Level Houston Center
08:45AM 27.7647 -96.8444 219° Southwest 463 533 30,000 -120 Level Houston Center
08:46AM 27.6639 -96.9331 218° Southwest 460 529 29,800 -1,080 Descending Houston Center
08:47AM 27.5625 -97.0236 218° Southwest 462 532 27,900 -1,920 Descending Houston Center
08:48AM 27.4617 -97.1133 218° Southwest 462 532 25,900 -1,920 Descending Houston Center
08:49AM 27.3608 -97.2025 218° Southwest 467 537 24,000 -2,160 Descending Houston Center
08:50AM 27.2422 -97.3075 218° Southwest 457 526 21,500 -2,220 Descending Houston Center
08:51AM 27.1483 -97.3908 218° Southwest 440 506 19,500 -1,980 Descending Houston Center
08:52AM 27.1261 -97.4119 220° Southwest 424 488 19,000 -2,040 Descending Houston Center
08:52AM 27.0956 -97.4397 219° Southwest 423 487 18,400 -1,980 Descending Houston Center
08:52AM 27.0528 -97.4736 215° Southwest 441 507 17,500 -2,100 Descending Houston Center
08:53AM 27.0053 -97.5203 221° Southwest 394 453 16,300 -1,500 Descending Houston Center
08:53AM 26.9678 -97.5500 215° Southwest 397 457 16,000 -300 Descending Houston Center
08:54AM 26.9206 -97.5928 219° Southwest 396 456 16,000  Level Houston Center
08:54AM 26.8861 -97.6297 224° Southwest 391 450 16,000  Level Houston Center
08:55AM 26.8467 -97.6872 232° Southwest 383 441 16,000 -420 Level Houston Center
08:55AM 26.8169 -97.7253 229° Southwest 333 383 15,600 -1,380 Descending Houston Center
08:56AM 26.7917 -97.7625 233° Southwest 322 371 14,600 -1,920 Descending Houston Center
08:56AM 26.7639 -97.7967 228° Southwest 300 345 13,700 -2,040 Descending Houston Center
08:57AM 26.7347 -97.8381 232° Southwest 290 334 12,600 -1,980 Descending Houston Center
08:57AM 26.7111 -97.8683 229° Southwest 297 342 11,700 -1,980 Descending Houston Center
08:58AM 26.6828 -97.9058 230° Southwest 287 330 10,600 -2,100 Descending Houston Center
08:58AM 26.6603 -97.9344 229° Southwest 286 329 9,600 -2,100 Descending Houston Center
08:59AM 26.6331 -97.9711 230° Southwest 278 320 8,500 -2,220 Descending Houston Center
08:59AM 26.6089 -98.0031 230° Southwest 273 314 7,400 -1,980 Descending Houston Center
09:00AM 26.5869 -98.0331 231° Southwest 268 308 6,500 -1,380 Descending Houston Center
09:00AM 26.5619 -98.0658 230° Southwest 266 306 6,000 -540 Descending Houston Center
09:01AM 26.5389 -98.0956 229° Southwest 263 303 6,000  Level Houston Center
09:01AM 26.5156 -98.1272 231° Southwest 260 299 6,000 -240 Level Houston Center
09:02AM 26.4947 -98.1550 230° Southwest 257 296 5,800 -780 Descending Houston Center
09:02AM 26.4681 -98.1889 229° Southwest 247 284 5,200 -1,020 Descending Houston Center
09:03AM 26.4519 -98.2097 229° Southwest 237 273 4,800 -1,020 Descending Houston Center
09:03AM 26.4319 -98.2381 232° Southwest 214 246 4,200 -1,140 Descending Houston Center
09:04AM 26.4150 -98.2589 228° Southwest 195 224 3,700 -1,020 Descending Houston Center
09:05AM 26.3958 -98.2844 230° Southwest 201 231 3,200 -1,020 Descending Houston Center
09:05AM 26.3800 -98.3056 230° Southwest 193 222 2,700 -1,140 Descending Houston Center
09:06AM 26.3619 -98.3297 230° Southwest 193 222 2,100 -720 Descending Houston Center
09:06AM 26.3450 -98.3519 230° Southwest 193 222 2,000 -120 Descending Houston Center
09:07AM 26.3186 -98.3517 179° South 188 216 2,000  Level Houston Center
09:07AM 26.3000 -98.3436 159° South 172 198 2,000  Level Houston Center
09:08AM 26.2761 -98.3331 158° South 169 194 2,000  Level Houston Center
09:08AM 26.2664 -98.3247 142° Southeast 124 143 2,000 -120 Level Houston Center
09:09AM 26.2550 -98.3133 138° Southeast 111 128 1,900 -300 Descending Houston Center
09:09AM 26.2456 -98.3064 147° Southeast 91 105 1,700 -540 Descending Houston Center